sensor_id;sensor_type;location;lat;lon;timestamp;P1;durP1;ratioP1;P2;durP2;ratioP2
50757;SDS011;36732;47.980;11.652;2022-12-18T00:00:44;36.22;;;19.75;;
50757;SDS011;36732;47.980;11.652;2022-12-18T00:03:14;32.53;;;20.05;;
50757;SDS011;36732;47.980;11.652;2022-12-18T00:05:47;28.85;;;19.35;;
50757;SDS011;36732;47.980;11.652;2022-12-18T00:08:17;28.80;;;18.88;;
50757;SDS011;36732;47.980;11.652;2022-12-18T00:10:44;32.33;;;19.05;;
50757;SDS011;36732;47.980;11.652;2022-12-18T00:13:11;26.98;;;18.17;;
50757;SDS011;36732;47.980;11.652;2022-12-18T00:15:38;27.77;;;17.40;;
50757;SDS011;36732;47.980;11.652;2022-12-18T00:18:04;29.98;;;19.40;;
50757;SDS011;36732;47.980;11.652;2022-12-18T00:20:31;29.33;;;16.95;;
50757;SDS011;36732;47.980;11.652;2022-12-18T00:23:04;30.75;;;20.52;;
50757;SDS011;36732;47.980;11.652;2022-12-18T00:25:32;33.80;;;19.90;;
50757;SDS011;36732;47.980;11.652;2022-12-18T00:27:59;32.65;;;20.98;;
50757;SDS011;36732;47.980;11.652;2022-12-18T00:30:26;35.50;;;21.30;;
50757;SDS011;36732;47.980;11.652;2022-12-18T00:32:52;31.08;;;19.70;;
50757;SDS011;36732;47.980;11.652;2022-12-18T00:35:17;32.35;;;20.02;;
50757;SDS011;36732;47.980;11.652;2022-12-18T00:37:43;34.08;;;20.73;;
50757;SDS011;36732;47.980;11.652;2022-12-18T00:40:09;30.05;;;18.65;;
50757;SDS011;36732;47.980;11.652;2022-12-18T00:42:35;33.28;;;20.30;;
50757;SDS011;36732;47.980;11.652;2022-12-18T00:45:19;30.08;;;17.75;;
50757;SDS011;36732;47.980;11.652;2022-12-18T00:47:45;32.22;;;19.52;;
50757;SDS011;36732;47.980;11.652;2022-12-18T00:50:11;27.90;;;17.50;;
50757;SDS011;36732;47.980;11.652;2022-12-18T00:52:37;30.35;;;19.25;;
50757;SDS011;36732;47.980;11.652;2022-12-18T00:55:03;30.48;;;18.30;;
50757;SDS011;36732;47.980;11.652;2022-12-18T00:57:29;30.95;;;20.10;;
50757;SDS011;36732;47.980;11.652;2022-12-18T00:59:55;32.45;;;20.13;;
50757;SDS011;36732;47.980;11.652;2022-12-18T01:02:20;33.55;;;20.20;;
50757;SDS011;36732;47.980;11.652;2022-12-18T01:04:46;30.33;;;18.88;;
50757;SDS011;36732;47.980;11.652;2022-12-18T01:07:12;26.25;;;16.92;;
50757;SDS011;36732;47.980;11.652;2022-12-18T01:09:37;30.50;;;19.23;;
50757;SDS011;36732;47.980;11.652;2022-12-18T01:12:03;28.10;;;18.35;;
50757;SDS011;36732;47.980;11.652;2022-12-18T01:14:29;29.98;;;18.80;;
50757;SDS011;36732;47.980;11.652;2022-12-18T01:16:55;26.00;;;17.25;;
50757;SDS011;36732;47.980;11.652;2022-12-18T01:19:21;29.27;;;18.23;;
50757;SDS011;36732;47.980;11.652;2022-12-18T01:21:46;26.83;;;17.48;;
50757;SDS011;36732;47.980;11.652;2022-12-18T01:24:12;29.20;;;17.80;;
50757;SDS011;36732;47.980;11.652;2022-12-18T01:26:38;30.08;;;18.55;;
50757;SDS011;36732;47.980;11.652;2022-12-18T01:29:03;27.85;;;17.38;;
50757;SDS011;36732;47.980;11.652;2022-12-18T01:31:30;30.25;;;18.23;;
50757;SDS011;36732;47.980;11.652;2022-12-18T01:34:00;27.42;;;17.17;;
50757;SDS011;36732;47.980;11.652;2022-12-18T01:36:28;29.33;;;17.85;;
50757;SDS011;36732;47.980;11.652;2022-12-18T01:38:59;30.33;;;18.35;;
50757;SDS011;36732;47.980;11.652;2022-12-18T01:41:37;29.88;;;17.77;;
50757;SDS011;36732;47.980;11.652;2022-12-18T01:50:06;30.73;;;18.20;;
50757;SDS011;36732;47.980;11.652;2022-12-18T01:52:53;26.92;;;16.48;;
50757;SDS011;36732;47.980;11.652;2022-12-18T01:55:22;26.73;;;16.98;;
50757;SDS011;36732;47.980;11.652;2022-12-18T01:57:52;26.90;;;16.00;;
50757;SDS011;36732;47.980;11.652;2022-12-18T02:00:20;26.88;;;17.13;;
50757;SDS011;36732;47.980;11.652;2022-12-18T02:02:48;30.85;;;19.25;;
50757;SDS011;36732;47.980;11.652;2022-12-18T02:05:15;33.60;;;18.50;;
50757;SDS011;36732;47.980;11.652;2022-12-18T02:07:52;30.13;;;18.38;;
50757;SDS011;36732;47.980;11.652;2022-12-18T02:10:46;29.83;;;18.48;;
50757;SDS011;36732;47.980;11.652;2022-12-18T02:13:46;26.95;;;17.10;;
50757;SDS011;36732;47.980;11.652;2022-12-18T02:22:35;25.23;;;16.38;;
50757;SDS011;36732;47.980;11.652;2022-12-18T02:28:17;29.75;;;18.73;;
50757;SDS011;36732;47.980;11.652;2022-12-18T02:30:48;31.95;;;19.55;;
50757;SDS011;36732;47.980;11.652;2022-12-18T02:33:16;32.30;;;19.00;;
50757;SDS011;36732;47.980;11.652;2022-12-18T02:35:45;30.15;;;19.23;;
50757;SDS011;36732;47.980;11.652;2022-12-18T02:38:12;31.17;;;19.48;;
50757;SDS011;36732;47.980;11.652;2022-12-18T02:40:39;27.13;;;17.48;;
50757;SDS011;36732;47.980;11.652;2022-12-18T02:43:10;36.45;;;21.13;;
50757;SDS011;36732;47.980;11.652;2022-12-18T02:45:50;32.05;;;19.17;;
50757;SDS011;36732;47.980;11.652;2022-12-18T02:48:22;29.20;;;17.90;;
50757;SDS011;36732;47.980;11.652;2022-12-18T02:50:55;32.50;;;19.15;;
50757;SDS011;36732;47.980;11.652;2022-12-18T02:54:09;33.63;;;20.05;;
50757;SDS011;36732;47.980;11.652;2022-12-18T02:56:49;36.63;;;21.58;;
50757;SDS011;36732;47.980;11.652;2022-12-18T02:59:21;32.65;;;19.77;;
50757;SDS011;36732;47.980;11.652;2022-12-18T03:02:07;30.13;;;18.92;;
50757;SDS011;36732;47.980;11.652;2022-12-18T03:04:48;32.50;;;19.75;;
50757;SDS011;36732;47.980;11.652;2022-12-18T03:07:27;32.38;;;18.75;;
50757;SDS011;36732;47.980;11.652;2022-12-18T03:10:06;32.47;;;19.23;;
50757;SDS011;36732;47.980;11.652;2022-12-18T03:12:42;34.15;;;20.58;;
50757;SDS011;36732;47.980;11.652;2022-12-18T03:15:19;34.28;;;19.70;;
50757;SDS011;36732;47.980;11.652;2022-12-18T03:17:56;28.38;;;16.90;;
50757;SDS011;36732;47.980;11.652;2022-12-18T03:20:28;30.23;;;18.02;;
50757;SDS011;36732;47.980;11.652;2022-12-18T03:23:02;29.73;;;18.10;;
50757;SDS011;36732;47.980;11.652;2022-12-18T03:25:34;29.90;;;19.05;;
50757;SDS011;36732;47.980;11.652;2022-12-18T03:28:05;32.38;;;19.27;;
50757;SDS011;36732;47.980;11.652;2022-12-18T03:30:33;28.23;;;17.00;;
50757;SDS011;36732;47.980;11.652;2022-12-18T03:33:17;29.65;;;17.80;;
50757;SDS011;36732;47.980;11.652;2022-12-18T03:35:51;30.60;;;18.33;;
50757;SDS011;36732;47.980;11.652;2022-12-18T03:38:17;31.30;;;19.30;;
50757;SDS011;36732;47.980;11.652;2022-12-18T03:40:45;31.55;;;18.52;;
50757;SDS011;36732;47.980;11.652;2022-12-18T03:43:36;28.98;;;18.33;;
50757;SDS011;36732;47.980;11.652;2022-12-18T03:46:27;31.85;;;19.25;;
50757;SDS011;36732;47.980;11.652;2022-12-18T03:52:12;29.25;;;17.08;;
50757;SDS011;36732;47.980;11.652;2022-12-18T03:54:52;27.15;;;16.75;;
50757;SDS011;36732;47.980;11.652;2022-12-18T03:57:21;34.28;;;20.15;;
50757;SDS011;36732;47.980;11.652;2022-12-18T03:59:54;27.83;;;16.58;;
50757;SDS011;36732;47.980;11.652;2022-12-18T04:04:52;24.38;;;14.07;;
50757;SDS011;36732;47.980;11.652;2022-12-18T04:07:21;25.50;;;16.35;;
50757;SDS011;36732;47.980;11.652;2022-12-18T04:09:48;27.05;;;17.70;;
50757;SDS011;36732;47.980;11.652;2022-12-18T04:12:15;28.55;;;17.85;;
50757;SDS011;36732;47.980;11.652;2022-12-18T04:14:41;27.85;;;17.92;;
50757;SDS011;36732;47.980;11.652;2022-12-18T04:17:06;29.58;;;18.35;;
50757;SDS011;36732;47.980;11.652;2022-12-18T04:19:32;29.85;;;17.85;;
50757;SDS011;36732;47.980;11.652;2022-12-18T04:21:58;28.10;;;18.50;;
50757;SDS011;36732;47.980;11.652;2022-12-18T04:24:23;31.83;;;18.52;;
50757;SDS011;36732;47.980;11.652;2022-12-18T04:26:49;29.60;;;17.25;;
50757;SDS011;36732;47.980;11.652;2022-12-18T04:29:15;32.17;;;18.08;;
50757;SDS011;36732;47.980;11.652;2022-12-18T04:31:41;29.85;;;18.70;;
50757;SDS011;36732;47.980;11.652;2022-12-18T04:34:06;31.10;;;18.52;;
50757;SDS011;36732;47.980;11.652;2022-12-18T04:36:32;31.38;;;18.15;;
50757;SDS011;36732;47.980;11.652;2022-12-18T04:38:58;28.52;;;18.25;;
50757;SDS011;36732;47.980;11.652;2022-12-18T04:41:23;31.00;;;20.13;;
50757;SDS011;36732;47.980;11.652;2022-12-18T04:43:49;29.40;;;18.45;;
50757;SDS011;36732;47.980;11.652;2022-12-18T04:46:15;28.63;;;18.73;;
50757;SDS011;36732;47.980;11.652;2022-12-18T04:48:40;27.98;;;17.95;;
50757;SDS011;36732;47.980;11.652;2022-12-18T04:51:06;30.58;;;19.15;;
50757;SDS011;36732;47.980;11.652;2022-12-18T04:53:32;28.50;;;17.92;;
50757;SDS011;36732;47.980;11.652;2022-12-18T04:56:08;27.50;;;17.48;;
50757;SDS011;36732;47.980;11.652;2022-12-18T04:58:37;29.23;;;18.15;;
50757;SDS011;36732;47.980;11.652;2022-12-18T05:01:04;28.48;;;17.33;;
50757;SDS011;36732;47.980;11.652;2022-12-18T05:03:31;31.23;;;19.90;;
50757;SDS011;36732;47.980;11.652;2022-12-18T05:05:56;27.63;;;17.17;;
50757;SDS011;36732;47.980;11.652;2022-12-18T05:08:22;25.48;;;16.13;;
50757;SDS011;36732;47.980;11.652;2022-12-18T05:10:48;26.40;;;17.10;;
50757;SDS011;36732;47.980;11.652;2022-12-18T05:13:14;27.85;;;17.83;;
50757;SDS011;36732;47.980;11.652;2022-12-18T05:15:39;28.73;;;18.20;;
50757;SDS011;36732;47.980;11.652;2022-12-18T05:18:06;29.13;;;16.88;;
50757;SDS011;36732;47.980;11.652;2022-12-18T05:20:33;28.85;;;17.00;;
50757;SDS011;36732;47.980;11.652;2022-12-18T05:22:59;29.48;;;18.58;;
50757;SDS011;36732;47.980;11.652;2022-12-18T05:25:24;26.80;;;17.08;;
50757;SDS011;36732;47.980;11.652;2022-12-18T05:27:50;28.73;;;17.42;;
50757;SDS011;36732;47.980;11.652;2022-12-18T05:30:16;30.38;;;18.63;;
50757;SDS011;36732;47.980;11.652;2022-12-18T05:32:42;28.92;;;18.67;;
50757;SDS011;36732;47.980;11.652;2022-12-18T05:35:09;27.25;;;17.45;;
50757;SDS011;36732;47.980;11.652;2022-12-18T05:37:37;27.05;;;16.83;;
50757;SDS011;36732;47.980;11.652;2022-12-18T05:40:03;28.90;;;17.10;;
50757;SDS011;36732;47.980;11.652;2022-12-18T05:42:30;30.50;;;19.33;;
50757;SDS011;36732;47.980;11.652;2022-12-18T05:44:56;27.23;;;17.30;;
50757;SDS011;36732;47.980;11.652;2022-12-18T05:47:21;26.20;;;16.67;;
50757;SDS011;36732;47.980;11.652;2022-12-18T05:49:47;29.58;;;18.85;;
50757;SDS011;36732;47.980;11.652;2022-12-18T05:52:13;25.10;;;16.70;;
50757;SDS011;36732;47.980;11.652;2022-12-18T05:54:39;25.35;;;15.50;;
50757;SDS011;36732;47.980;11.652;2022-12-18T05:57:05;28.92;;;17.52;;
50757;SDS011;36732;47.980;11.652;2022-12-18T05:59:30;29.63;;;17.33;;
50757;SDS011;36732;47.980;11.652;2022-12-18T06:01:56;26.55;;;15.98;;
50757;SDS011;36732;47.980;11.652;2022-12-18T06:04:22;29.95;;;17.33;;
50757;SDS011;36732;47.980;11.652;2022-12-18T06:06:48;29.33;;;17.58;;
50757;SDS011;36732;47.980;11.652;2022-12-18T06:09:13;26.50;;;16.95;;
50757;SDS011;36732;47.980;11.652;2022-12-18T06:11:39;25.38;;;16.40;;
50757;SDS011;36732;47.980;11.652;2022-12-18T06:14:05;28.45;;;17.77;;
50757;SDS011;36732;47.980;11.652;2022-12-18T06:16:31;27.35;;;17.27;;
50757;SDS011;36732;47.980;11.652;2022-12-18T06:18:58;24.48;;;15.13;;
50757;SDS011;36732;47.980;11.652;2022-12-18T06:21:26;26.52;;;16.65;;
50757;SDS011;36732;47.980;11.652;2022-12-18T06:23:53;24.98;;;15.98;;
50757;SDS011;36732;47.980;11.652;2022-12-18T06:26:19;27.27;;;16.90;;
50757;SDS011;36732;47.980;11.652;2022-12-18T06:28:45;24.65;;;15.55;;
50757;SDS011;36732;47.980;11.652;2022-12-18T06:31:11;24.58;;;16.17;;
50757;SDS011;36732;47.980;11.652;2022-12-18T06:33:37;28.35;;;17.13;;
50757;SDS011;36732;47.980;11.652;2022-12-18T06:36:04;24.55;;;15.10;;
50757;SDS011;36732;47.980;11.652;2022-12-18T06:38:33;23.42;;;14.70;;
50757;SDS011;36732;47.980;11.652;2022-12-18T06:41:05;25.77;;;15.30;;
50757;SDS011;36732;47.980;11.652;2022-12-18T06:43:36;22.77;;;14.95;;
50757;SDS011;36732;47.980;11.652;2022-12-18T06:46:03;26.15;;;16.25;;
50757;SDS011;36732;47.980;11.652;2022-12-18T06:48:30;29.90;;;18.75;;
50757;SDS011;36732;47.980;11.652;2022-12-18T06:50:56;30.20;;;16.48;;
50757;SDS011;36732;47.980;11.652;2022-12-18T06:53:22;24.08;;;14.93;;
50757;SDS011;36732;47.980;11.652;2022-12-18T06:55:48;23.98;;;15.38;;
50757;SDS011;36732;47.980;11.652;2022-12-18T06:58:14;26.02;;;16.17;;
50757;SDS011;36732;47.980;11.652;2022-12-18T07:00:40;24.88;;;14.90;;
50757;SDS011;36732;47.980;11.652;2022-12-18T07:03:06;25.75;;;14.73;;
50757;SDS011;36732;47.980;11.652;2022-12-18T07:05:31;23.63;;;14.27;;
50757;SDS011;36732;47.980;11.652;2022-12-18T07:07:58;25.70;;;16.13;;
50757;SDS011;36732;47.980;11.652;2022-12-18T07:10:24;22.33;;;14.60;;
50757;SDS011;36732;47.980;11.652;2022-12-18T07:12:50;26.42;;;15.00;;
50757;SDS011;36732;47.980;11.652;2022-12-18T07:15:16;23.77;;;15.30;;
50757;SDS011;36732;47.980;11.652;2022-12-18T07:17:41;24.67;;;15.75;;
50757;SDS011;36732;47.980;11.652;2022-12-18T07:20:07;26.38;;;17.13;;
50757;SDS011;36732;47.980;11.652;2022-12-18T07:22:34;25.40;;;15.50;;
50757;SDS011;36732;47.980;11.652;2022-12-18T07:25:00;27.38;;;16.85;;
50757;SDS011;36732;47.980;11.652;2022-12-18T07:27:25;27.02;;;19.48;;
50757;SDS011;36732;47.980;11.652;2022-12-18T07:29:51;26.17;;;15.90;;
50757;SDS011;36732;47.980;11.652;2022-12-18T07:32:17;24.15;;;14.68;;
50757;SDS011;36732;47.980;11.652;2022-12-18T07:34:42;23.73;;;14.95;;
50757;SDS011;36732;47.980;11.652;2022-12-18T07:37:08;23.98;;;14.38;;
50757;SDS011;36732;47.980;11.652;2022-12-18T07:39:35;26.13;;;16.38;;
50757;SDS011;36732;47.980;11.652;2022-12-18T07:42:01;28.38;;;16.88;;
50757;SDS011;36732;47.980;11.652;2022-12-18T07:44:45;23.40;;;15.38;;
50757;SDS011;36732;47.980;11.652;2022-12-18T07:47:11;23.92;;;14.57;;
50757;SDS011;36732;47.980;11.652;2022-12-18T07:49:36;27.30;;;16.38;;
50757;SDS011;36732;47.980;11.652;2022-12-18T07:52:02;24.85;;;15.40;;
50757;SDS011;36732;47.980;11.652;2022-12-18T07:54:28;26.38;;;17.23;;
50757;SDS011;36732;47.980;11.652;2022-12-18T07:56:54;26.77;;;16.02;;
50757;SDS011;36732;47.980;11.652;2022-12-18T07:59:20;27.63;;;18.08;;
50757;SDS011;36732;47.980;11.652;2022-12-18T08:01:45;23.52;;;15.50;;
50757;SDS011;36732;47.980;11.652;2022-12-18T08:04:11;23.90;;;15.45;;
50757;SDS011;36732;47.980;11.652;2022-12-18T08:06:37;23.67;;;13.77;;
50757;SDS011;36732;47.980;11.652;2022-12-18T08:09:03;22.27;;;13.95;;
50757;SDS011;36732;47.980;11.652;2022-12-18T08:11:28;21.35;;;13.23;;
50757;SDS011;36732;47.980;11.652;2022-12-18T08:13:54;26.25;;;15.20;;
50757;SDS011;36732;47.980;11.652;2022-12-18T08:16:21;24.73;;;14.95;;
50757;SDS011;36732;47.980;11.652;2022-12-18T08:18:48;25.35;;;15.20;;
50757;SDS011;36732;47.980;11.652;2022-12-18T08:21:20;34.17;;;24.50;;
50757;SDS011;36732;47.980;11.652;2022-12-18T08:23:50;30.10;;;18.65;;
50757;SDS011;36732;47.980;11.652;2022-12-18T08:26:16;25.05;;;15.60;;
50757;SDS011;36732;47.980;11.652;2022-12-18T08:28:43;19.92;;;12.93;;
50757;SDS011;36732;47.980;11.652;2022-12-18T08:31:08;23.15;;;14.80;;
50757;SDS011;36732;47.980;11.652;2022-12-18T08:33:34;20.48;;;14.38;;
50757;SDS011;36732;47.980;11.652;2022-12-18T08:36:03;27.20;;;18.52;;
50757;SDS011;36732;47.980;11.652;2022-12-18T08:38:30;23.80;;;15.40;;
50757;SDS011;36732;47.980;11.652;2022-12-18T08:41:01;26.70;;;15.75;;
50757;SDS011;36732;47.980;11.652;2022-12-18T08:43:31;29.58;;;18.23;;
50757;SDS011;36732;47.980;11.652;2022-12-18T08:46:16;22.67;;;13.75;;
50757;SDS011;36732;47.980;11.652;2022-12-18T08:48:46;22.92;;;13.60;;
50757;SDS011;36732;47.980;11.652;2022-12-18T08:51:12;25.38;;;15.73;;
50757;SDS011;36732;47.980;11.652;2022-12-18T08:53:41;23.33;;;15.05;;
50757;SDS011;36732;47.980;11.652;2022-12-18T08:56:07;23.75;;;14.77;;
50757;SDS011;36732;47.980;11.652;2022-12-18T08:58:33;22.10;;;15.15;;
50757;SDS011;36732;47.980;11.652;2022-12-18T09:01:02;20.05;;;12.98;;
50757;SDS011;36732;47.980;11.652;2022-12-18T09:03:29;20.20;;;12.90;;
50757;SDS011;36732;47.980;11.652;2022-12-18T09:05:55;21.27;;;13.05;;
50757;SDS011;36732;47.980;11.652;2022-12-18T09:08:21;21.70;;;14.00;;
50757;SDS011;36732;47.980;11.652;2022-12-18T09:10:48;21.63;;;12.65;;
50757;SDS011;36732;47.980;11.652;2022-12-18T09:13:15;24.45;;;14.15;;
50757;SDS011;36732;47.980;11.652;2022-12-18T09:15:42;21.65;;;12.57;;
50757;SDS011;36732;47.980;11.652;2022-12-18T09:18:13;23.05;;;14.38;;
50757;SDS011;36732;47.980;11.652;2022-12-18T09:20:41;20.83;;;12.85;;
50757;SDS011;36732;47.980;11.652;2022-12-18T09:23:07;31.90;;;21.23;;
50757;SDS011;36732;47.980;11.652;2022-12-18T09:25:34;23.42;;;15.48;;
50757;SDS011;36732;47.980;11.652;2022-12-18T09:28:05;21.48;;;13.40;;
50757;SDS011;36732;47.980;11.652;2022-12-18T09:30:39;21.13;;;13.48;;
50757;SDS011;36732;47.980;11.652;2022-12-18T09:33:07;19.35;;;11.70;;
50757;SDS011;36732;47.980;11.652;2022-12-18T09:35:37;26.15;;;15.15;;
50757;SDS011;36732;47.980;11.652;2022-12-18T09:38:03;21.55;;;14.73;;
50757;SDS011;36732;47.980;11.652;2022-12-18T09:40:32;18.55;;;11.77;;
50757;SDS011;36732;47.980;11.652;2022-12-18T09:43:05;21.02;;;12.60;;
50757;SDS011;36732;47.980;11.652;2022-12-18T09:45:35;22.38;;;13.48;;
50757;SDS011;36732;47.980;11.652;2022-12-18T09:48:14;24.08;;;14.82;;
50757;SDS011;36732;47.980;11.652;2022-12-18T09:50:48;23.83;;;14.82;;
50757;SDS011;36732;47.980;11.652;2022-12-18T09:53:18;22.35;;;14.05;;
50757;SDS011;36732;47.980;11.652;2022-12-18T09:55:49;19.80;;;12.50;;
50757;SDS011;36732;47.980;11.652;2022-12-18T10:01:10;17.65;;;12.10;;
50757;SDS011;36732;47.980;11.652;2022-12-18T10:03:49;21.58;;;14.18;;
50757;SDS011;36732;47.980;11.652;2022-12-18T10:09:01;24.33;;;15.32;;
50757;SDS011;36732;47.980;11.652;2022-12-18T10:11:55;20.25;;;13.32;;
50757;SDS011;36732;47.980;11.652;2022-12-18T10:21:12;20.33;;;11.75;;
50757;SDS011;36732;47.980;11.652;2022-12-18T10:23:53;20.35;;;13.23;;
50757;SDS011;36732;47.980;11.652;2022-12-18T10:26:31;20.15;;;12.65;;
50757;SDS011;36732;47.980;11.652;2022-12-18T10:28:57;21.10;;;13.52;;
50757;SDS011;36732;47.980;11.652;2022-12-18T10:31:24;20.80;;;12.88;;
50757;SDS011;36732;47.980;11.652;2022-12-18T10:33:50;21.23;;;13.48;;
50757;SDS011;36732;47.980;11.652;2022-12-18T10:36:19;19.77;;;13.15;;
50757;SDS011;36732;47.980;11.652;2022-12-18T10:38:45;18.88;;;11.50;;
50757;SDS011;36732;47.980;11.652;2022-12-18T10:43:43;23.02;;;13.95;;
50757;SDS011;36732;47.980;11.652;2022-12-18T10:48:36;21.05;;;12.93;;
50757;SDS011;36732;47.980;11.652;2022-12-18T10:51:11;24.80;;;14.25;;
50757;SDS011;36732;47.980;11.652;2022-12-18T10:53:56;18.20;;;12.60;;
50757;SDS011;36732;47.980;11.652;2022-12-18T10:56:30;19.00;;;12.63;;
50757;SDS011;36732;47.980;11.652;2022-12-18T11:01:27;22.52;;;13.27;;
50757;SDS011;36732;47.980;11.652;2022-12-18T11:04:13;20.52;;;13.48;;
50757;SDS011;36732;47.980;11.652;2022-12-18T11:07:06;20.33;;;13.32;;
50757;SDS011;36732;47.980;11.652;2022-12-18T11:09:36;19.85;;;12.48;;
50757;SDS011;36732;47.980;11.652;2022-12-18T11:12:04;20.67;;;14.20;;
50757;SDS011;36732;47.980;11.652;2022-12-18T11:14:46;19.90;;;12.32;;
50757;SDS011;36732;47.980;11.652;2022-12-18T11:17:18;17.35;;;11.10;;
50757;SDS011;36732;47.980;11.652;2022-12-18T11:19:52;19.38;;;11.88;;
50757;SDS011;36732;47.980;11.652;2022-12-18T11:27:26;19.65;;;12.07;;
50757;SDS011;36732;47.980;11.652;2022-12-18T11:30:06;17.65;;;11.48;;
50757;SDS011;36732;47.980;11.652;2022-12-18T11:32:36;21.33;;;13.18;;
50757;SDS011;36732;47.980;11.652;2022-12-18T11:35:10;22.08;;;12.95;;
50757;SDS011;36732;47.980;11.652;2022-12-18T11:37:54;20.98;;;13.27;;
50757;SDS011;36732;47.980;11.652;2022-12-18T11:40:35;21.08;;;12.55;;
50757;SDS011;36732;47.980;11.652;2022-12-18T11:43:10;20.10;;;12.05;;
50757;SDS011;36732;47.980;11.652;2022-12-18T11:45:50;22.23;;;13.90;;
50757;SDS011;36732;47.980;11.652;2022-12-18T11:48:22;18.30;;;12.45;;
50757;SDS011;36732;47.980;11.652;2022-12-18T11:50:53;22.48;;;14.70;;
50757;SDS011;36732;47.980;11.652;2022-12-18T11:53:22;23.10;;;14.68;;
50757;SDS011;36732;47.980;11.652;2022-12-18T12:01:35;22.42;;;14.65;;
50757;SDS011;36732;47.980;11.652;2022-12-18T12:07:17;20.75;;;13.57;;
50757;SDS011;36732;47.980;11.652;2022-12-18T12:21:49;17.77;;;12.23;;
50757;SDS011;36732;47.980;11.652;2022-12-18T12:24:39;17.23;;;11.70;;
50757;SDS011;36732;47.980;11.652;2022-12-18T12:31:00;20.85;;;13.63;;
50757;SDS011;36732;47.980;11.652;2022-12-18T12:33:42;26.98;;;15.02;;
50757;SDS011;36732;47.980;11.652;2022-12-18T12:39:31;20.23;;;12.05;;
50757;SDS011;36732;47.980;11.652;2022-12-18T12:42:04;19.83;;;12.88;;
50757;SDS011;36732;47.980;11.652;2022-12-18T12:45:15;19.23;;;11.93;;
50757;SDS011;36732;47.980;11.652;2022-12-18T12:47:49;20.02;;;13.23;;
50757;SDS011;36732;47.980;11.652;2022-12-18T12:50:17;22.63;;;14.13;;
50757;SDS011;36732;47.980;11.652;2022-12-18T12:52:46;20.73;;;12.80;;
50757;SDS011;36732;47.980;11.652;2022-12-18T12:55:19;33.38;;;19.65;;
50757;SDS011;36732;47.980;11.652;2022-12-18T13:00:36;19.58;;;12.07;;
50757;SDS011;36732;47.980;11.652;2022-12-18T13:03:21;16.75;;;11.10;;
50757;SDS011;36732;47.980;11.652;2022-12-18T13:06:12;22.40;;;13.50;;
50757;SDS011;36732;47.980;11.652;2022-12-18T13:08:56;30.30;;;18.85;;
50757;SDS011;36732;47.980;11.652;2022-12-18T13:11:43;30.13;;;16.77;;
50757;SDS011;36732;47.980;11.652;2022-12-18T13:14:35;28.20;;;16.25;;
50757;SDS011;36732;47.980;11.652;2022-12-18T13:19:42;21.20;;;13.70;;
50757;SDS011;36732;47.980;11.652;2022-12-18T13:22:22;22.15;;;13.73;;
50757;SDS011;36732;47.980;11.652;2022-12-18T13:24:53;17.52;;;11.32;;
50757;SDS011;36732;47.980;11.652;2022-12-18T13:43:56;22.33;;;14.75;;
50757;SDS011;36732;47.980;11.652;2022-12-18T13:46:43;25.95;;;15.75;;
50757;SDS011;36732;47.980;11.652;2022-12-18T13:51:55;21.35;;;13.82;;
50757;SDS011;36732;47.980;11.652;2022-12-18T13:57:01;25.42;;;16.20;;
50757;SDS011;36732;47.980;11.652;2022-12-18T13:59:39;25.13;;;12.45;;
50757;SDS011;36732;47.980;11.652;2022-12-18T14:02:07;21.55;;;13.48;;
50757;SDS011;36732;47.980;11.652;2022-12-18T14:04:56;26.75;;;18.95;;
50757;SDS011;36732;47.980;11.652;2022-12-18T14:07:23;21.58;;;14.52;;
50757;SDS011;36732;47.980;11.652;2022-12-18T14:09:59;20.65;;;14.27;;
50757;SDS011;36732;47.980;11.652;2022-12-18T14:12:27;23.58;;;14.13;;
50757;SDS011;36732;47.980;11.652;2022-12-18T14:15:34;21.27;;;14.45;;
50757;SDS011;36732;47.980;11.652;2022-12-18T14:21:00;20.30;;;13.50;;
50757;SDS011;36732;47.980;11.652;2022-12-18T14:26:03;17.38;;;11.32;;
50757;SDS011;36732;47.980;11.652;2022-12-18T14:28:45;22.60;;;13.63;;
50757;SDS011;36732;47.980;11.652;2022-12-18T14:31:22;21.88;;;13.80;;
50757;SDS011;36732;47.980;11.652;2022-12-18T14:33:53;21.55;;;14.00;;
50757;SDS011;36732;47.980;11.652;2022-12-18T14:36:26;24.52;;;16.50;;
50757;SDS011;36732;47.980;11.652;2022-12-18T14:38:57;27.48;;;17.98;;
50757;SDS011;36732;47.980;11.652;2022-12-18T14:41:23;34.40;;;21.08;;
50757;SDS011;36732;47.980;11.652;2022-12-18T14:43:51;20.80;;;15.32;;
50757;SDS011;36732;47.980;11.652;2022-12-18T14:46:30;18.33;;;13.48;;
50757;SDS011;36732;47.980;11.652;2022-12-18T14:49:02;19.05;;;13.20;;
50757;SDS011;36732;47.980;11.652;2022-12-18T14:51:52;17.85;;;11.57;;
50757;SDS011;36732;47.980;11.652;2022-12-18T14:54:45;20.23;;;12.52;;
50757;SDS011;36732;47.980;11.652;2022-12-18T14:57:20;18.45;;;11.45;;
50757;SDS011;36732;47.980;11.652;2022-12-18T14:59:48;19.15;;;12.68;;
50757;SDS011;36732;47.980;11.652;2022-12-18T15:04:46;18.00;;;11.48;;
50757;SDS011;36732;47.980;11.652;2022-12-18T15:07:16;17.02;;;11.57;;
50757;SDS011;36732;47.980;11.652;2022-12-18T15:10:09;17.50;;;11.95;;
50757;SDS011;36732;47.980;11.652;2022-12-18T15:12:39;20.88;;;12.68;;
50757;SDS011;36732;47.980;11.652;2022-12-18T15:26:18;20.08;;;13.43;;
50757;SDS011;36732;47.980;11.652;2022-12-18T15:31:34;21.33;;;12.43;;
50757;SDS011;36732;47.980;11.652;2022-12-18T15:34:04;17.98;;;11.63;;
50757;SDS011;36732;47.980;11.652;2022-12-18T15:36:39;16.92;;;11.40;;
50757;SDS011;36732;47.980;11.652;2022-12-18T15:39:05;19.98;;;13.95;;
50757;SDS011;36732;47.980;11.652;2022-12-18T15:41:32;22.63;;;13.50;;
50757;SDS011;36732;47.980;11.652;2022-12-18T15:44:00;20.65;;;14.10;;
50757;SDS011;36732;47.980;11.652;2022-12-18T15:46:25;18.83;;;12.40;;
50757;SDS011;36732;47.980;11.652;2022-12-18T15:48:55;21.50;;;13.25;;
50757;SDS011;36732;47.980;11.652;2022-12-18T15:51:28;20.17;;;12.80;;
50757;SDS011;36732;47.980;11.652;2022-12-18T15:54:01;21.55;;;13.32;;
50757;SDS011;36732;47.980;11.652;2022-12-18T15:56:30;16.27;;;11.45;;
50757;SDS011;36732;47.980;11.652;2022-12-18T15:59:15;21.85;;;12.55;;
50757;SDS011;36732;47.980;11.652;2022-12-18T16:01:45;21.33;;;13.52;;
50757;SDS011;36732;47.980;11.652;2022-12-18T16:04:14;22.25;;;13.73;;
50757;SDS011;36732;47.980;11.652;2022-12-18T16:06:42;21.30;;;14.45;;
50757;SDS011;36732;47.980;11.652;2022-12-18T16:09:08;25.50;;;16.67;;
50757;SDS011;36732;47.980;11.652;2022-12-18T16:11:35;27.60;;;17.75;;
50757;SDS011;36732;47.980;11.652;2022-12-18T16:19:15;22.08;;;12.98;;
50757;SDS011;36732;47.980;11.652;2022-12-18T16:21:42;21.75;;;13.65;;
50757;SDS011;36732;47.980;11.652;2022-12-18T16:24:21;20.77;;;11.98;;
50757;SDS011;36732;47.980;11.652;2022-12-18T16:26:49;40.85;;;25.25;;
50757;SDS011;36732;47.980;11.652;2022-12-18T16:29:16;25.83;;;16.70;;
50757;SDS011;36732;47.980;11.652;2022-12-18T16:31:44;24.85;;;16.75;;
50757;SDS011;36732;47.980;11.652;2022-12-18T16:34:20;28.05;;;18.73;;
50757;SDS011;36732;47.980;11.652;2022-12-18T16:36:50;25.60;;;16.23;;